createdAt,value
2022-08-17T00:01:41.485Z,100491.38
2022-08-17T00:04:19.337Z,100498.41
2022-08-17T00:06:49.029Z,100497.59
2022-08-17T00:09:18.808Z,100492.38
2022-08-17T00:12:41.652Z,100497.59
2022-08-17T00:14:36.386Z,100489.88
2022-08-17T00:17:06.372Z,100496.13
2022-08-17T00:19:34.049Z,100495.28
2022-08-17T00:22:31.288Z,100497.97
2022-08-17T00:24:50.520Z,100496.31
2022-08-17T00:27:18.168Z,100497.16
2022-08-17T00:29:46.826Z,100497.34
2022-08-17T00:33:12.285Z,100501.72
2022-08-17T00:35:07.721Z,100496.50
2022-08-17T00:37:35.202Z,100497.53
2022-08-17T00:40:02.733Z,100494.00
2022-08-17T00:42:31.218Z,100502.09
2022-08-17T00:44:59.155Z,100495.69
2022-08-17T00:47:27.987Z,100489.63
2022-08-17T00:49:55.490Z,100493.38
2022-08-17T00:52:23.874Z,100487.78
2022-08-17T00:54:52.699Z,100494.19
2022-08-17T00:57:21.171Z,100495.03
2022-08-17T01:00:01.802Z,100486.31
2022-08-17T01:02:41.594Z,100497.72
2022-08-17T01:05:10.118Z,100489.00
2022-08-17T01:07:37.993Z,100487.34
2022-08-17T01:10:06.906Z,100494.41
2022-08-17T01:12:34.983Z,100499.97
2022-08-17T01:15:02.444Z,100499.97
2022-08-17T01:17:29.905Z,100499.34
2022-08-17T01:19:59.040Z,100503.53
2022-08-17T01:22:27.773Z,100511.63
2022-08-17T01:24:57.958Z,100513.44
2022-08-17T01:27:26.080Z,100504.72
2022-08-17T01:29:57.837Z,100510.94
2022-08-17T01:32:25.382Z,100502.03
2022-08-17T01:34:52.985Z,100507.63
2022-08-17T01:37:20.749Z,100510.94
2022-08-17T01:39:51.471Z,100509.28
2022-08-17T01:42:21.808Z,100505.97
2022-08-17T01:44:49.248Z,100516.75
2022-08-17T01:47:16.696Z,100510.50
2022-08-17T01:49:45.092Z,100515.06
2022-08-17T01:52:12.946Z,100519.22
2022-08-17T01:54:41.309Z,100525.84
2022-08-17T01:57:10.278Z,100525.84
2022-08-17T01:59:37.840Z,100527.72
2022-08-17T02:02:07.218Z,100524.16
2022-08-17T02:04:34.687Z,100529.56
2022-08-17T02:07:02.142Z,100526.22
2022-08-17T02:09:32.141Z,100517.50
2022-08-17T02:12:00.324Z,100520.84
2022-08-17T02:14:49.052Z,100514.81
2022-08-17T02:17:16.497Z,100522.06
2022-08-17T02:19:43.981Z,100517.50
2022-08-17T02:22:11.819Z,100520.41
2022-08-17T02:24:58.875Z,100516.69
2022-08-17T02:27:26.714Z,100531.81
2022-08-17T02:29:55.450Z,100523.91
2022-08-17T02:32:28.465Z,100519.56
2022-08-17T02:34:56.592Z,100509.81
2022-08-17T02:37:24.045Z,100517.06
2022-08-17T02:39:51.531Z,100500.09
2022-08-17T02:42:19.046Z,100510.00
2022-08-17T02:44:46.629Z,100507.31
2022-08-17T02:47:15.728Z,100508.34
2022-08-17T02:49:47.539Z,100504.81
2022-08-17T02:52:43.162Z,100495.91
2022-08-17T02:55:12.651Z,100508.16
2022-08-17T02:57:40.147Z,100506.69
2022-08-17T03:00:11.206Z,100516.63
2022-08-17T03:02:40.249Z,100511.25
2022-08-17T03:05:08.589Z,100513.94
2022-08-17T03:07:36.526Z,100511.25
2022-08-17T03:10:04.397Z,100502.53
2022-08-17T03:12:33.392Z,100513.31
2022-08-17T03:15:03.799Z,100508.75
2022-08-17T03:17:31.320Z,100499.84
2022-08-17T03:20:00.354Z,100504.53
2022-08-17T03:22:36.010Z,100503.50
2022-08-17T03:25:06.690Z,100501.00
2022-08-17T03:27:38.458Z,100498.31
2022-08-17T03:30:10.609Z,100498.31
2022-08-17T03:32:38.491Z,100499.13
2022-08-17T03:35:07.958Z,100502.88
2022-08-17T03:37:35.438Z,100505.56
2022-08-17T03:40:03.139Z,100502.06
2022-08-17T03:42:31.941Z,100500.19
2022-08-17T03:45:00.666Z,100502.06
2022-08-17T03:47:45.901Z,100501.19
2022-08-17T03:50:38.069Z,100505.56
2022-08-17T03:53:24.932Z,100496.84
2022-08-17T03:56:10.306Z,100503.25
2022-08-17T03:58:37.872Z,100508.63
2022-08-17T04:01:05.646Z,100505.94
2022-08-17T04:03:33.192Z,100505.94
2022-08-17T04:06:02.174Z,100506.13
2022-08-17T04:08:29.665Z,100502.63
2022-08-17T04:10:57.230Z,100504.25
2022-08-17T04:13:25.493Z,100510.69
2022-08-17T04:15:53.211Z,100512.34
2022-08-17T04:18:20.654Z,100510.88
2022-08-17T04:20:48.099Z,100511.72
2022-08-17T04:23:17.936Z,100505.50
2022-08-17T04:25:48.127Z,100514.41
2022-08-17T04:28:16.542Z,100514.41
2022-08-17T04:30:45.041Z,100515.25
2022-08-17T04:33:14.011Z,100514.41
2022-08-17T04:35:43.031Z,100522.50
2022-08-17T04:38:13.671Z,100518.78
2022-08-17T04:41:00.250Z,100522.50
2022-08-17T04:43:28.025Z,100532.25
2022-08-17T04:45:57.161Z,100531.00
2022-08-17T04:48:29.589Z,100524.16
2022-08-17T04:51:05.654Z,100534.75
2022-08-17T04:53:33.127Z,100533.91
2022-08-17T04:56:01.857Z,100529.38
2022-08-17T04:58:29.354Z,100524.81
2022-08-17T05:00:56.911Z,100528.50
2022-08-17T05:03:24.393Z,100525.81
2022-08-17T05:05:51.844Z,100536.41
2022-08-17T05:08:19.933Z,100540.97
2022-08-17T05:10:47.821Z,100535.56
2022-08-17T05:13:17.647Z,100537.25
2022-08-17T05:15:47.824Z,100538.91
2022-08-17T05:18:15.530Z,100548.03
2022-08-17T05:20:43.057Z,100562.13
2022-08-17T05:23:11.546Z,100560.00
2022-08-17T05:25:40.765Z,100557.06
2022-08-17T05:28:08.504Z,100559.19
2022-08-17T05:30:38.427Z,100564.69
2022-08-17T05:33:07.468Z,100566.94
2022-08-17T05:35:35.988Z,100564.69
2022-08-17T05:38:03.604Z,100568.28
2022-08-17T05:40:32.780Z,100568.72
2022-08-17T05:43:08.390Z,100567.72
2022-08-17T05:45:54.370Z,100565.66
2022-08-17T05:48:22.497Z,100568.34
2022-08-17T05:51:13.803Z,100574.41
2022-08-17T05:53:45.217Z,100575.06
2022-08-17T05:56:29.435Z,100577.78
2022-08-17T05:59:00.929Z,100569.47
2022-08-17T06:01:34.465Z,100573.03
2022-08-17T06:04:06.490Z,100580.72
2022-08-17T06:06:39.776Z,100573.03
2022-08-17T06:09:28.815Z,100570.50
2022-08-17T06:12:01.358Z,100573.22
2022-08-17T06:14:35.673Z,100575.91
2022-08-17T06:17:06.965Z,100582.31
2022-08-17T06:19:37.965Z,100580.66
2022-08-17T06:22:06.152Z,100582.50
2022-08-17T06:24:35.803Z,100588.75
2022-08-17T06:27:07.661Z,100587.88
2022-08-17T06:29:38.559Z,100576.09
2022-08-17T06:32:09.223Z,100580.25
2022-08-17T06:34:39.889Z,100588.53
2022-08-17T06:37:12.336Z,100587.50
2022-08-17T06:39:47.525Z,100588.31
2022-08-17T06:43:02.597Z,100588.13
2022-08-17T06:45:09.768Z,100591.69
2022-08-17T06:47:42.616Z,100590.44
2022-08-17T06:50:14.426Z,100595.84
2022-08-17T06:52:47.590Z,100596.66
2022-08-17T06:55:18.913Z,100597.06
2022-08-17T06:57:47.833Z,100587.13
2022-08-17T07:00:16.695Z,100587.31
2022-08-17T07:03:02.681Z,100585.88
2022-08-17T07:05:32.735Z,100590.53
2022-08-17T07:08:02.423Z,100588.09
2022-08-17T07:10:31.450Z,100584.63
2022-08-17T07:13:14.821Z,100593.53
2022-08-17T07:15:43.249Z,100590.28
2022-08-17T07:18:12.028Z,100584.88
2022-08-17T07:20:40.275Z,100588.22
2022-08-17T07:23:13.255Z,100589.47
2022-08-17T07:25:40.891Z,100589.47
2022-08-17T07:28:08.325Z,100585.78
2022-08-17T07:30:47.129Z,100591.34
2022-08-17T07:33:20.115Z,100593.06
2022-08-17T07:35:48.361Z,100591.41
2022-08-17T07:38:24.660Z,100592.03
2022-08-17T07:41:02.308Z,100591.66
2022-08-17T07:43:31.154Z,100597.06
2022-08-17T07:46:22.828Z,100600.19
2022-08-17T07:48:52.914Z,100600.00
2022-08-17T07:51:26.082Z,100598.56
2022-08-17T07:53:54.157Z,100591.19
2022-08-17T07:56:37.755Z,100597.81
2022-08-17T07:59:11.119Z,100600.06
2022-08-17T08:01:41.845Z,100603.22
2022-08-17T08:04:25.862Z,100602.41
2022-08-17T08:07:12.165Z,100593.75
2022-08-17T08:09:41.779Z,100601.59
2022-08-17T08:12:28.960Z,100596.41
2022-08-17T08:15:02.894Z,100599.38
2022-08-17T08:17:35.450Z,100601.50
2022-08-17T08:20:51.029Z,100596.66
2022-08-17T08:22:57.924Z,100614.34
2022-08-17T08:25:40.813Z,100613.06
2022-08-17T08:28:15.296Z,100614.88
2022-08-17T08:30:44.596Z,100613.81
2022-08-17T08:33:32.898Z,100609.31
2022-08-17T08:36:04.721Z,100605.38
2022-08-17T08:38:37.632Z,100603.53
2022-08-17T08:41:12.875Z,100604.84
2022-08-17T08:43:45.190Z,100599.44
2022-08-17T08:46:22.999Z,100603.63
2022-08-17T08:49:10.069Z,100604.69
2022-08-17T08:51:46.928Z,100597.41
2022-08-17T08:54:26.650Z,100596.63
2022-08-17T08:57:22.331Z,100602.84
2022-08-17T08:59:57.944Z,100597.84
2022-08-17T09:02:35.575Z,100599.09
2022-08-17T09:05:18.355Z,100604.50
2022-08-17T09:07:50.688Z,100591.69
2022-08-17T09:10:26.601Z,100600.78
2022-08-17T09:12:57.548Z,100607.38
2022-08-17T09:15:27.501Z,100605.94
2022-08-17T09:18:28.526Z,100598.28
2022-08-17T09:20:50.341Z,100598.72
2022-08-17T09:23:26.213Z,100594.59
2022-08-17T09:25:58.200Z,100595.47
2022-08-17T09:28:29.723Z,100591.69
2022-08-17T09:31:04.115Z,100592.16
2022-08-17T09:33:32.932Z,100588.81
2022-08-17T09:36:02.542Z,100593.00
2022-08-17T09:38:34.299Z,100595.72
2022-08-17T09:41:05.891Z,100594.50
2022-08-17T09:43:37.238Z,100596.78
2022-08-17T09:46:07.921Z,100597.63
2022-08-17T09:48:38.158Z,100598.69
2022-08-17T09:51:07.941Z,100602.38
2022-08-17T09:53:37.960Z,100595.13
2022-08-17T09:56:19.223Z,100597.19
2022-08-17T09:58:56.389Z,100595.19
2022-08-17T10:01:29.365Z,100594.19
2022-08-17T10:04:06.260Z,100585.44
2022-08-17T10:06:36.394Z,100597.34
2022-08-17T10:09:08.871Z,100591.09
2022-08-17T10:11:55.208Z,100584.84
2022-08-17T10:14:36.284Z,100579.88
2022-08-17T10:17:09.785Z,100578.00
2022-08-17T10:19:38.844Z,100578.41
2022-08-17T10:22:38.155Z,100577.78
2022-08-17T10:25:37.608Z,100575.28
2022-08-17T10:28:19.923Z,100579.44
2022-08-17T10:30:49.357Z,100580.47
2022-08-17T10:33:19.690Z,100580.91
2022-08-17T10:35:53.086Z,100585.28
2022-08-17T10:38:41.615Z,100584.47
2022-08-17T10:41:21.831Z,100581.16
2022-08-17T10:44:38.694Z,100575.13
2022-08-17T10:46:55.618Z,100577.84
2022-08-17T10:49:33.942Z,100582.22
2022-08-17T10:52:02.889Z,100576.41
2022-08-17T10:54:49.823Z,100580.13
2022-08-17T10:57:38.709Z,100586.38
2022-08-17T11:00:10.195Z,100583.66
2022-08-17T11:02:50.839Z,100569.72
2022-08-17T11:05:50.264Z,100571.22
2022-08-17T11:08:47.804Z,100568.31
2022-08-17T11:11:23.557Z,100563.50
2022-08-17T11:14:00.461Z,100568.66
2022-08-17T11:16:37.567Z,100565.78
2022-08-17T11:19:33.763Z,100563.31
2022-08-17T11:22:18.464Z,100560.00
2022-08-17T11:24:47.680Z,100549.19
2022-08-17T11:27:24.766Z,100556.22
2022-08-17T11:30:01.572Z,100553.56
2022-08-17T11:32:33.866Z,100550.44
2022-08-17T11:35:30.490Z,100546.03
2022-08-17T11:38:15.046Z,100551.06
2022-08-17T11:41:16.487Z,100545.66
2022-08-17T11:44:02.856Z,100553.75
2022-08-17T11:46:51.784Z,100551.66
2022-08-17T11:49:39.138Z,100546.28
2022-08-17T11:52:16.199Z,100535.06
2022-08-17T11:54:45.899Z,100539.69
2022-08-17T11:58:05.810Z,100531.56
2022-08-17T12:00:51.250Z,100537.19
2022-08-17T12:03:42.279Z,100532.59
2022-08-17T12:06:30.678Z,100542.97
2022-08-17T12:09:01.769Z,100535.47
2022-08-17T12:12:01.706Z,100539.63
2022-08-17T12:14:32.254Z,100540.03
2022-08-17T12:17:10.894Z,100532.97
2022-08-17T12:19:40.007Z,100541.69
2022-08-17T12:22:09.709Z,100537.53
2022-08-17T12:24:44.658Z,100535.47
2022-08-17T12:27:12.243Z,100533.47
2022-08-17T12:29:43.753Z,100540.31
2022-08-17T12:32:17.404Z,100537.19
2022-08-17T12:34:46.599Z,100537.59
2022-08-17T12:37:15.574Z,100543.41
2022-08-17T12:39:51.131Z,100538.38
2022-08-17T12:42:24.064Z,100536.53
2022-08-17T12:44:52.565Z,100538.16
2022-08-17T12:47:22.875Z,100538.81
2022-08-17T12:49:52.392Z,100534.25
2022-08-17T12:52:23.612Z,100522.59
2022-08-17T12:54:54.434Z,100528.00
2022-08-17T12:57:23.300Z,100526.34
2022-08-17T12:59:53.225Z,100524.25
2022-08-17T13:02:32.850Z,100511.38
2022-08-17T13:05:01.752Z,100508.28
2022-08-17T13:07:31.229Z,100497.28
2022-08-17T13:09:58.769Z,100503.31
2022-08-17T13:12:33.683Z,100507.69
2022-08-17T13:15:01.211Z,100504.75
2022-08-17T13:17:30.647Z,100503.94
2022-08-17T13:19:58.154Z,100512.88
2022-08-17T13:22:28.499Z,100503.94
2022-08-17T13:24:57.316Z,100505.13
2022-08-17T13:27:25.956Z,100506.66
2022-08-17T13:29:57.228Z,100508.09
2022-08-17T13:32:33.832Z,100507.25
2022-08-17T13:35:14.155Z,100509.72
2022-08-17T13:37:58.824Z,100507.00
2022-08-17T13:40:30.239Z,100514.75
2022-08-17T13:42:57.794Z,100510.59
2022-08-17T13:45:39.147Z,100507.47
2022-08-17T13:48:08.350Z,100507.69
2022-08-17T13:50:35.852Z,100505.38
2022-08-17T13:53:04.790Z,100505.59
2022-08-17T13:55:32.310Z,100505.00
2022-08-17T13:58:03.612Z,100513.50
2022-08-17T14:00:36.207Z,100494.59
2022-08-17T14:03:04.684Z,100501.03
2022-08-17T14:05:32.378Z,100497.91
2022-08-17T14:08:01.317Z,100493.53
2022-08-17T14:10:30.264Z,100502.69
2022-08-17T14:12:57.836Z,100501.66
2022-08-17T14:15:55.884Z,100493.97
2022-08-17T14:18:17.649Z,100495.41
2022-08-17T14:20:45.119Z,100490.63
2022-08-17T14:23:15.014Z,100487.72
2022-08-17T14:25:45.719Z,100487.31
2022-08-17T14:28:13.208Z,100484.59
2022-08-17T14:30:40.774Z,100487.31
2022-08-17T14:33:08.333Z,100487.09
2022-08-17T14:35:36.737Z,100489.41
2022-08-17T14:38:04.182Z,100484.00
2022-08-17T14:40:33.190Z,100482.31
2022-08-17T14:43:02.086Z,100478.38
2022-08-17T14:45:32.227Z,100485.03
2022-08-17T14:48:01.822Z,100483.59
2022-08-17T14:50:29.290Z,100482.53
2022-08-17T14:52:58.128Z,100488.78
2022-08-17T14:55:26.572Z,100475.69
2022-08-17T14:57:54.042Z,100476.91
2022-08-17T15:00:22.835Z,100485.44
2022-08-17T15:02:53.540Z,100481.91
2022-08-17T15:05:21.040Z,100475.44
2022-08-17T15:07:48.495Z,100483.53
2022-08-17T15:10:16.315Z,100474.00
2022-08-17T15:12:43.753Z,100478.34
2022-08-17T15:15:13.770Z,100472.31
2022-08-17T15:17:45.972Z,100475.22
2022-08-17T15:20:27.508Z,100469.41
2022-08-17T15:22:56.187Z,100471.28
2022-08-17T15:25:23.816Z,100479.81
2022-08-17T15:27:51.547Z,100464.22
2022-08-17T15:30:19.303Z,100465.47
2022-08-17T15:32:54.320Z,100471.69
2022-08-17T15:35:27.054Z,100467.97
2022-08-17T15:37:57.011Z,100473.78
2022-08-17T15:40:25.008Z,100465.69
2022-08-17T15:42:52.638Z,100465.06
2022-08-17T15:45:22.500Z,100471.91
2022-08-17T15:47:51.881Z,100462.78
2022-08-17T15:50:19.495Z,100457.97
2022-08-17T15:52:47.483Z,100458.41
2022-08-17T15:55:15.182Z,100452.16
2022-08-17T15:57:42.616Z,100452.38
2022-08-17T16:00:10.993Z,100451.91
2022-08-17T16:03:45.668Z,100453.38
2022-08-17T16:05:31.148Z,100452.97
2022-08-17T16:07:59.503Z,100454.22
2022-08-17T16:10:34.784Z,100458.81
2022-08-17T16:13:03.283Z,100450.69
2022-08-17T16:15:31.164Z,100454.22
2022-08-17T16:17:58.619Z,100450.50
2022-08-17T16:20:26.092Z,100451.09
2022-08-17T16:22:55.240Z,100449.47
2022-08-17T16:25:52.183Z,100456.50
2022-08-17T16:28:11.325Z,100456.94
2022-08-17T16:30:39.116Z,100463.81
2022-08-17T16:33:06.580Z,100459.47
2022-08-17T16:35:34.019Z,100451.97
2022-08-17T16:38:02.894Z,100450.28
2022-08-17T16:40:31.322Z,100450.50
2022-08-17T16:43:03.777Z,100439.91
2022-08-17T16:45:39.936Z,100444.88
2022-08-17T16:48:07.565Z,100441.97
2022-08-17T16:50:35.071Z,100440.34
2022-08-17T16:53:08.388Z,100440.53
2022-08-17T16:55:36.374Z,100446.56
2022-08-17T16:58:04.420Z,100442.63
2022-08-17T17:00:33.317Z,100438.25
2022-08-17T17:03:19.399Z,100439.94
2022-08-17T17:05:57.828Z,100441.56
2022-08-17T17:08:28.372Z,100441.97
2022-08-17T17:10:56.622Z,100432.03
2022-08-17T17:13:27.360Z,100437.63
2022-08-17T17:15:58.331Z,100435.75
2022-08-17T17:18:30.408Z,100438.47
2022-08-17T17:20:58.048Z,100434.06
2022-08-17T17:23:38.189Z,100441.97
2022-08-17T17:26:21.675Z,100443.03
2022-08-17T17:28:57.144Z,100450.28
2022-08-17T17:31:25.264Z,100447.81
2022-08-17T17:33:53.905Z,100443.25
2022-08-17T17:36:24.851Z,100443.25
2022-08-17T17:38:55.515Z,100447.19
2022-08-17T17:41:26.553Z,100443.84
2022-08-17T17:44:10.839Z,100441.16
2022-08-17T17:46:40.445Z,100437.03
2022-08-17T17:49:10.125Z,100440.75
2022-08-17T17:52:08.874Z,100442.00
2022-08-17T17:54:36.130Z,100442.41
2022-08-17T17:57:05.472Z,100438.22
2022-08-17T17:59:43.343Z,100441.59
2022-08-17T18:02:40.807Z,100439.09
2022-08-17T18:05:11.812Z,100445.91
2022-08-17T18:07:41.152Z,100450.50
2022-08-17T18:10:29.356Z,100453.19
2022-08-17T18:13:00.543Z,100450.69
2022-08-17T18:15:30.396Z,100451.72
2022-08-17T18:18:24.178Z,100450.28
2022-08-17T18:20:56.024Z,100456.50
2022-08-17T18:23:28.226Z,100450.28
2022-08-17T18:25:58.577Z,100445.91
2022-08-17T18:28:28.191Z,100447.97
2022-08-17T18:31:11.592Z,100449.03
2022-08-17T18:33:39.208Z,100451.94
2022-08-17T18:36:06.949Z,100450.88
2022-08-17T18:38:35.854Z,100454.44
2022-08-17T18:41:08.051Z,100464.59
2022-08-17T18:43:44.400Z,100470.19
2022-08-17T18:46:29.283Z,100463.78
2022-08-17T18:48:59.371Z,100468.56
2022-08-17T18:51:40.725Z,100466.88
2022-08-17T18:54:16.126Z,100467.09
2022-08-17T18:56:45.971Z,100460.84
2022-08-17T18:59:23.308Z,100460.84
2022-08-17T19:02:10.231Z,100465.63
2022-08-17T19:04:42.178Z,100470.22
2022-08-17T19:07:26.748Z,100465.84
2022-08-17T19:09:56.880Z,100473.13
2022-08-17T19:12:30.016Z,100463.13
2022-08-17T19:14:57.531Z,100471.03
2022-08-17T19:17:28.640Z,100469.38
2022-08-17T19:19:58.740Z,100476.66
2022-08-17T19:22:28.660Z,100470.41
2022-08-17T19:25:03.759Z,100467.06
2022-08-17T19:27:43.691Z,100461.91
2022-08-17T19:30:14.681Z,100462.09
2022-08-17T19:32:42.200Z,100458.75
2022-08-17T19:35:16.664Z,100465.00
2022-08-17T19:37:51.731Z,100467.69
2022-08-17T19:40:49.008Z,100467.69
2022-08-17T19:43:15.643Z,100452.72
2022-08-17T19:45:49.198Z,100458.75
2022-08-17T19:48:21.930Z,100460.81
2022-08-17T19:50:54.155Z,100459.19
2022-08-17T19:53:41.724Z,100460.00
2022-08-17T19:56:19.741Z,100458.13
2022-08-17T19:58:57.648Z,100461.88
2022-08-17T20:01:34.554Z,100462.91
2022-08-17T20:04:07.293Z,100461.88
2022-08-17T20:06:35.599Z,100456.47
2022-08-17T20:09:05.117Z,100456.88
2022-08-17T20:11:34.423Z,100456.88
2022-08-17T20:14:05.172Z,100456.06
2022-08-17T20:16:32.959Z,100451.50
2022-08-17T20:19:01.306Z,100455.22
2022-08-17T20:21:32.065Z,100455.22
2022-08-17T20:24:01.152Z,100459.78
2022-08-17T20:26:29.463Z,100455.22
2022-08-17T20:29:09.973Z,100459.78
2022-08-17T20:31:45.467Z,100453.75
2022-08-17T20:34:33.715Z,100449.19
2022-08-17T20:37:07.802Z,100449.19
2022-08-17T20:39:39.174Z,100447.53
2022-08-17T20:42:10.530Z,100448.56
2022-08-17T20:44:40.093Z,100450.44
2022-08-17T20:47:10.424Z,100448.56
2022-08-17T20:49:48.330Z,100449.59
2022-08-17T20:52:36.345Z,100437.97
2022-08-17T20:55:05.420Z,100442.53
2022-08-17T20:57:48.893Z,100446.28
2022-08-17T21:00:45.415Z,100454.38
2022-08-17T21:03:51.811Z,100448.16
2022-08-17T21:06:22.072Z,100445.66
2022-08-17T21:08:53.356Z,100448.34
2022-08-17T21:12:03.876Z,100448.53
2022-08-17T21:14:56.356Z,100452.06
2022-08-17T21:17:45.209Z,100455.81
2022-08-17T21:20:26.191Z,100457.66
2022-08-17T21:23:01.720Z,100454.97
2022-08-17T21:25:42.491Z,100464.94
2022-08-17T21:28:14.376Z,100463.31
2022-08-17T21:30:50.034Z,100471.41
2022-08-17T21:33:25.215Z,100469.72
2022-08-17T21:35:54.199Z,100471.81
2022-08-17T21:38:35.249Z,100466.41
2022-08-17T21:41:02.757Z,100466.41
2022-08-17T21:43:33.172Z,100469.31
2022-08-17T21:46:07.635Z,100469.31
2022-08-17T21:48:42.291Z,100462.22
2022-08-17T21:51:12.119Z,100467.63
2022-08-17T21:53:44.029Z,100474.06
2022-08-17T21:56:12.444Z,100467.78
2022-08-17T21:58:45.405Z,100469.66
2022-08-17T22:01:23.616Z,100474.25
2022-08-17T22:04:00.307Z,100475.25
2022-08-17T22:06:29.305Z,100475.25
2022-08-17T22:09:01.326Z,100473.63
2022-08-17T22:11:28.782Z,100481.72
2022-08-17T22:14:05.550Z,100480.25
2022-08-17T22:16:33.583Z,100484.63
2022-08-17T22:19:01.040Z,100482.13
2022-08-17T22:21:28.481Z,100489.34
2022-08-17T22:24:06.443Z,100480.44
2022-08-17T22:27:00.614Z,100480.44
2022-08-17T22:29:54.340Z,100478.56
2022-08-17T22:32:40.787Z,100486.66
2022-08-17T22:35:33.579Z,100487.50
2022-08-17T22:38:29.820Z,100490.41
2022-08-17T22:41:13.571Z,100481.50
2022-08-17T22:43:41.538Z,100478.78
2022-08-17T22:46:14.856Z,100477.13
2022-08-17T22:48:47.643Z,100482.50
2022-08-17T22:51:15.871Z,100487.91
2022-08-17T22:54:04.202Z,100490.59
2022-08-17T22:56:49.241Z,100484.59
2022-08-17T22:59:33.565Z,100491.00
2022-08-17T23:02:14.636Z,100481.03
2022-08-17T23:04:43.207Z,100483.72
2022-08-17T23:07:10.781Z,100478.75
2022-08-17T23:09:38.851Z,100476.06
2022-08-17T23:12:08.050Z,100472.31
2022-08-17T23:14:39.214Z,100479.59
2022-08-17T23:17:07.224Z,100477.91
2022-08-17T23:19:35.949Z,100477.91
2022-08-17T23:22:04.295Z,100478.09
2022-08-17T23:24:35.626Z,100479.78
2022-08-17T23:27:03.499Z,100479.16
2022-08-17T23:29:30.961Z,100485.19
2022-08-17T23:31:59.778Z,100473.56
2022-08-17T23:34:27.998Z,100472.72
2022-08-17T23:36:56.732Z,100470.88
2022-08-17T23:39:27.631Z,100478.97
2022-08-17T23:41:56.177Z,100471.88
2022-08-17T23:44:24.281Z,100472.94
2022-08-17T23:46:51.831Z,100476.66
2022-08-17T23:49:19.797Z,100472.94
2022-08-17T23:51:47.462Z,100474.34
2022-08-17T23:54:19.429Z,100459.22
2022-08-17T23:56:47.326Z,100466.47
2022-08-17T23:59:14.816Z,100461.91
